Time;durP1;ratioP1;P1;durP2;ratioP2;P2;SDS_P1;SDS_P2;PMS_P1;PMS_P2;Temp;Humidity;BMP_temperature;BMP_pressure;BME280_temperature;BME280_humidity;BME280_pressure;Samples;Min_cycle;Max_cycle;Signal;HPM_P1;HPM_P2
2021/12/22 00:00:58;;;;;;;44.85;19.70;;;;;;;-7.51;100.00;100312.00;4949792;28;21717;-63
2021/12/22 00:03:24;;;;;;;44.55;18.73;;;;;;;-7.61;100.00;100309.19;4957861;28;20062;-63
2021/12/22 00:05:51;;;;;;;47.80;19.85;;;;;;;-7.17;100.00;100308.84;4953477;28;20121;-63
2021/12/22 00:08:17;;;;;;;46.90;18.40;;;;;;;-6.63;100.00;100307.81;4950508;28;20031;-62
2021/12/22 00:10:43;;;;;;;75.53;26.95;;;;;;;-6.93;100.00;100315.97;4951979;28;20126;-63
2021/12/22 00:13:09;;;;;;;56.47;24.05;;;;;;;-7.22;100.00;100308.31;4945464;28;20038;-63
2021/12/22 00:15:34;;;;;;;55.70;22.85;;;;;;;-7.48;100.00;100304.00;4953826;28;20055;-62
2021/12/22 00:18:00;;;;;;;50.58;21.83;;;;;;;-7.32;100.00;100304.66;4948367;28;20046;-62
2021/12/22 00:20:25;;;;;;;51.88;22.13;;;;;;;-7.33;100.00;100302.16;4948112;28;20462;-62
2021/12/22 00:22:51;;;;;;;65.10;25.30;;;;;;;-7.37;100.00;100296.31;4952136;28;20024;-63
2021/12/22 00:25:16;;;;;;;80.18;28.23;;;;;;;-6.99;100.00;100295.50;4951151;28;20024;-63
2021/12/22 00:27:42;;;;;;;47.00;21.38;;;;;;;-7.17;100.00;100293.19;4950782;28;20035;-63
2021/12/22 00:30:08;;;;;;;56.67;24.33;;;;;;;-7.32;100.00;100294.22;4951851;28;20832;-62
2021/12/22 00:32:36;;;;;;;47.60;22.08;;;;;;;-7.39;100.00;100287.75;4949988;28;20106;-62
2021/12/22 00:35:01;;;;;;;67.57;21.40;;;;;;;-7.00;100.00;100283.44;4949122;28;20122;-63
2021/12/22 00:37:28;;;;;;;60.53;23.35;;;;;;;-7.10;100.00;100282.38;4956914;28;20049;-63
2021/12/22 00:39:54;;;;;;;70.55;23.48;;;;;;;-6.87;100.00;100279.03;4953845;28;20082;-63
2021/12/22 00:42:19;;;;;;;52.60;21.55;;;;;;;-6.57;100.00;100275.25;4954002;28;20043;-62
2021/12/22 00:44:52;;;;;;;43.22;18.55;;;;;;;-6.69;100.00;100281.31;4949955;28;20038;-63
2021/12/22 00:47:18;;;;;;;42.17;17.65;;;;;;;-6.27;100.00;100271.44;4945097;28;20094;-63
2021/12/22 00:49:44;;;;;;;43.03;19.95;;;;;;;-6.30;100.00;100272.47;4955592;28;20034;-63
2021/12/22 00:52:09;;;;;;;46.58;19.75;;;;;;;-6.61;100.00;100279.84;4949323;28;20074;-63
2021/12/22 00:54:34;;;;;;;57.53;20.58;;;;;;;-6.96;100.00;100275.28;4953734;28;20042;-63
2021/12/22 00:57:04;;;;;;;56.55;20.92;;;;;;;-7.28;100.00;100284.47;4952145;28;20039;-63
2021/12/22 00:59:31;;;;;;;42.50;19.70;;;;;;;-7.52;100.00;100279.09;4950674;28;20706;-63
2021/12/22 01:01:56;;;;;;;43.35;19.80;;;;;;;-7.75;100.00;100276.22;4951673;28;20097;-62
2021/12/22 01:04:22;;;;;;;54.03;19.38;;;;;;;-7.79;100.00;100274.75;4953839;28;20443;-63
2021/12/22 01:06:47;;;;;;;42.03;19.27;;;;;;;-7.81;100.00;100280.06;4950991;28;20043;-63
2021/12/22 01:09:13;;;;;;;49.05;22.05;;;;;;;-7.96;100.00;100288.00;4949380;28;20041;-63
2021/12/22 01:11:38;;;;;;;48.50;21.73;;;;;;;-8.03;100.00;100278.00;4947212;28;20043;-63
2021/12/22 01:14:04;;;;;;;63.22;23.42;;;;;;;-7.43;100.00;100281.09;4952890;28;20365;-62
2021/12/22 01:16:29;;;;;;;55.65;20.10;;;;;;;-7.71;100.00;100282.91;4955235;28;20461;-63
2021/12/22 01:18:57;;;;;;;42.67;18.52;;;;;;;-7.48;100.00;100283.19;4947924;28;20549;-63
2021/12/22 01:21:31;;;;;;;56.42;19.25;;;;;;;-7.69;100.00;100278.41;4948793;28;20061;-63
2021/12/22 01:24:02;;;;;;;51.15;20.55;;;;;;;-7.75;100.00;100284.03;4952909;28;20035;-63
2021/12/22 01:26:29;;;;;;;52.55;20.58;;;;;;;-7.78;100.00;100280.81;4951130;28;20155;-63
2021/12/22 01:28:54;;;;;;;58.78;21.85;;;;;;;-6.99;100.00;100285.94;4949681;28;20031;-63
2021/12/22 01:31:20;;;;;;;46.97;17.52;;;;;;;-7.29;100.00;100277.56;4946764;28;20501;-62
2021/12/22 01:33:45;;;;;;;45.65;17.73;;;;;;;-7.44;100.00;100282.88;4945428;28;20027;-63
2021/12/22 01:36:11;;;;;;;48.92;19.15;;;;;;;-7.71;100.00;100289.84;4947191;28;20058;-63
2021/12/22 01:38:36;;;;;;;38.38;15.75;;;;;;;-7.96;100.00;100293.22;4949709;28;20516;-63
2021/12/22 01:41:01;;;;;;;38.42;16.38;;;;;;;-7.79;100.00;100300.78;4954022;28;20090;-63
2021/12/22 01:43:27;;;;;;;31.05;13.65;;;;;;;-7.94;100.00;100296.56;4954012;28;20050;-63
2021/12/22 01:51:51;;;;;;;23.92;10.60;;;;;;;-7.41;100.00;100293.09;4935113;28;20054;-63
2021/12/22 01:54:19;;;;;;;16.42;9.48;;;;;;;-7.22;100.00;100297.06;4949609;28;20043;-62
2021/12/22 01:56:46;;;;;;;28.95;11.55;;;;;;;-7.08;100.00;100296.16;4952311;28;20113;-63
2021/12/22 01:59:11;;;;;;;27.02;12.80;;;;;;;-7.40;100.00;100304.31;4951468;28;20842;-62
2021/12/22 02:01:37;;;;;;;30.50;11.20;;;;;;;-7.49;100.00;100297.94;4951189;28;20039;-63
2021/12/22 02:04:04;;;;;;;23.92;11.75;;;;;;;-7.62;100.00;100303.13;4952087;28;20035;-62
2021/12/22 02:06:29;;;;;;;30.60;10.90;;;;;;;-7.60;100.00;100298.66;4954156;28;20040;-62
2021/12/22 02:08:55;;;;;;;34.00;10.63;;;;;;;-7.55;100.00;100306.16;4955416;28;20509;-62
2021/12/22 02:11:22;;;;;;;30.95;11.32;;;;;;;-7.50;100.00;100305.88;4953642;28;20035;-62
2021/12/22 02:13:54;;;;;;;25.50;11.48;;;;;;;-7.68;100.00;100308.75;4970369;28;20074;-63
2021/12/22 02:16:26;;;;;;;18.60;9.77;;;;;;;-7.65;100.00;100303.31;4952634;28;20500;-63
2021/12/22 02:18:53;;;;;;;19.70;10.70;;;;;;;-7.64;100.00;100309.34;4934432;28;20477;-63
2021/12/22 02:21:19;;;;;;;31.00;13.85;;;;;;;-7.78;100.00;100312.88;4952049;28;20378;-61
2021/12/22 02:23:45;;;;;;;24.95;11.10;;;;;;;-7.64;100.00;100312.81;4948535;28;20328;-62
2021/12/22 02:26:19;;;;;;;33.72;14.27;;;;;;;-7.85;100.00;100312.41;4949089;28;20050;-62
2021/12/22 02:28:48;;;;;;;36.38;17.13;;;;;;;-7.91;100.00;100311.97;4952781;28;20026;-61
2021/12/22 02:31:17;;;;;;;35.30;13.43;;;;;;;-7.93;100.00;100306.06;4949783;28;20043;-61
2021/12/22 02:33:43;;;;;;;29.70;10.75;;;;;;;-7.53;100.00;100300.88;4953906;28;20531;-62
2021/12/22 02:36:22;;;;;;;27.42;11.77;;;;;;;-7.71;100.00;100308.94;4950856;28;20147;-62
2021/12/22 02:38:58;;;;;;;39.08;15.02;;;;;;;-7.95;100.00;100316.53;4953740;28;20035;-61
2021/12/22 02:41:27;;;;;;;28.77;12.13;;;;;;;-8.12;100.00;100304.59;4955123;28;20067;-61
2021/12/22 02:43:54;;;;;;;51.10;16.98;;;;;;;-8.15;100.00;100304.78;4956154;28;20126;-62
2021/12/22 02:46:25;;;;;;;42.80;17.77;;;;;;;-8.12;100.00;100312.41;4958030;28;20038;-62
2021/12/22 02:48:51;;;;;;;47.83;17.05;;;;;;;-8.02;100.00;100304.84;4960437;28;20081;-62
2021/12/22 02:51:16;;;;;;;32.65;16.63;;;;;;;-8.05;100.00;100305.88;4952163;28;20482;-62
2021/12/22 02:56:37;;;;;;;85.15;23.80;;;;;;;-7.80;100.00;100314.72;4952087;28;20271;-64
2021/12/22 03:02:10;;;;;;;64.00;19.88;;;;;;;-8.06;100.00;100301.63;4928456;28;20042;-62
2021/12/22 03:04:45;;;;;;;51.42;18.25;;;;;;;-7.91;100.00;100304.16;4957518;28;20043;-62
2021/12/22 03:07:17;;;;;;;44.35;13.63;;;;;;;-8.12;100.00;100294.19;4950950;28;20046;-62
2021/12/22 03:09:43;;;;;;;38.75;17.15;;;;;;;-8.39;100.00;100290.75;4968185;28;20114;-62
2021/12/22 03:12:11;;;;;;;35.20;14.77;;;;;;;-8.60;100.00;100292.91;4956528;28;20089;-62
2021/12/22 03:14:36;;;;;;;33.53;13.30;;;;;;;-8.63;100.00;100299.16;4957027;28;20089;-62
2021/12/22 03:17:01;;;;;;;32.65;12.73;;;;;;;-8.71;100.00;100301.34;4958591;28;20059;-62
2021/12/22 03:19:29;;;;;;;25.80;12.55;;;;;;;-8.85;100.00;100309.16;4956828;28;20066;-62
2021/12/22 03:22:01;;;;;;;33.83;12.65;;;;;;;-9.00;100.00;100306.56;4953956;28;20426;-62
2021/12/22 03:24:28;;;;;;;30.23;12.15;;;;;;;-9.07;100.00;100294.03;4957779;28;20450;-63
2021/12/22 03:26:53;;;;;;;27.67;12.60;;;;;;;-9.09;100.00;100301.06;4950416;28;20066;-62
2021/12/22 03:29:19;;;;;;;30.05;11.40;;;;;;;-9.15;100.00;100294.47;4953850;28;20039;-63
2021/12/22 03:31:45;;;;;;;25.58;12.60;;;;;;;-9.21;100.00;100292.22;4961142;28;20051;-62
2021/12/22 03:34:10;;;;;;;22.38;11.05;;;;;;;-9.23;100.00;100301.88;4947553;28;20226;-62
2021/12/22 03:36:36;;;;;;;26.92;12.02;;;;;;;-9.25;100.00;100301.13;4952768;28;20362;-62
2021/12/22 03:39:02;;;;;;;33.92;12.02;;;;;;;-9.23;100.00;100294.09;4946591;28;20521;-62
2021/12/22 03:41:28;;;;;;;30.02;12.90;;;;;;;-9.25;100.00;100290.75;4954078;28;20051;-62
2021/12/22 03:43:53;;;;;;;28.42;11.25;;;;;;;-9.26;100.00;100292.50;4949174;28;20067;-62
2021/12/22 03:46:19;;;;;;;27.20;12.73;;;;;;;-9.30;100.00;100285.00;4949944;28;20733;-62
2021/12/22 03:48:44;;;;;;;29.25;11.10;;;;;;;-9.43;100.00;100277.91;4960467;28;20050;-62
2021/12/22 03:51:11;;;;;;;31.45;11.32;;;;;;;-9.44;100.00;100281.41;4956224;28;20129;-62
2021/12/22 03:53:36;;;;;;;26.25;12.90;;;;;;;-9.41;100.00;100276.06;4953243;28;20044;-62
2021/12/22 03:56:01;;;;;;;27.60;14.35;;;;;;;-9.44;100.00;100291.81;4956517;28;20046;-62
2021/12/22 03:58:27;;;;;;;32.60;14.77;;;;;;;-9.40;100.00;100282.09;4955003;28;20034;-62
2021/12/22 04:00:55;;;;;;;24.63;12.57;;;;;;;-9.38;100.00;100281.06;4954098;28;20054;-62
2021/12/22 04:03:25;;;;;;;26.95;12.85;;;;;;;-9.44;100.00;100280.59;4949849;28;20031;-62
2021/12/22 04:05:50;;;;;;;22.67;12.13;;;;;;;-9.44;100.00;100278.00;4953842;28;20125;-62
2021/12/22 04:08:18;;;;;;;19.27;10.23;;;;;;;-9.43;100.00;100277.91;4952572;28;20580;-62
2021/12/22 04:10:47;;;;;;;24.75;11.25;;;;;;;-9.04;100.00;100265.25;4958701;28;20568;-63
2021/12/22 04:13:12;;;;;;;36.15;13.10;;;;;;;-8.95;100.00;100257.75;4953259;28;20030;-62
2021/12/22 04:15:38;;;;;;;27.15;12.50;;;;;;;-8.71;100.00;100264.97;4953693;28;20034;-62
2021/12/22 04:18:04;;;;;;;28.08;13.10;;;;;;;-8.88;100.00;100262.56;4956338;28;20043;-62
2021/12/22 04:20:30;;;;;;;29.73;13.75;;;;;;;-9.05;100.00;100259.22;4953317;28;20086;-62
2021/12/22 04:22:55;;;;;;;31.70;14.45;;;;;;;-9.08;100.00;100255.97;4948195;28;20125;-62
2021/12/22 04:25:21;;;;;;;30.20;13.90;;;;;;;-9.12;100.00;100266.53;4955933;28;20055;-62
2021/12/22 04:27:48;;;;;;;44.55;16.17;;;;;;;-9.10;100.00;100266.47;4955179;28;20545;-62
2021/12/22 04:30:13;;;;;;;37.05;17.45;;;;;;;-9.09;100.00;100270.72;4951805;28;20030;-62
2021/12/22 04:32:39;;;;;;;28.80;14.80;;;;;;;-9.09;100.00;100270.72;4956188;28;20049;-62
2021/12/22 04:35:04;;;;;;;45.25;16.63;;;;;;;-9.05;100.00;100261.00;4947055;28;20155;-62
2021/12/22 04:37:30;;;;;;;40.40;18.17;;;;;;;-9.16;100.00;100259.88;4953347;28;20046;-62
2021/12/22 04:39:55;;;;;;;42.45;18.23;;;;;;;-9.18;100.00;100269.53;4941970;28;20042;-62
2021/12/22 04:42:21;;;;;;;42.22;17.20;;;;;;;-9.30;100.00;100270.25;4951266;28;20046;-62
2021/12/22 04:44:46;;;;;;;45.05;15.57;;;;;;;-9.33;100.00;100262.63;4953330;28;20045;-62
2021/12/22 04:47:12;;;;;;;43.40;15.50;;;;;;;-9.32;100.00;100266.06;4951469;28;20083;-62
2021/12/22 04:49:39;;;;;;;59.88;17.75;;;;;;;-9.37;100.00;100272.34;4953209;28;20536;-62
2021/12/22 04:52:07;;;;;;;33.33;13.38;;;;;;;-9.60;100.00;100270.28;4955952;28;20166;-62
2021/12/22 04:54:43;;;;;;;30.00;14.65;;;;;;;-9.53;100.00;100270.72;4950320;28;20062;-62
2021/12/22 04:57:08;;;;;;;40.97;15.10;;;;;;;-9.47;100.00;100271.22;4950156;28;20508;-62
2021/12/22 04:59:33;;;;;;;49.65;13.75;;;;;;;-9.55;100.00;100271.66;4951267;28;20039;-62
2021/12/22 05:01:59;;;;;;;56.47;14.98;;;;;;;-9.66;100.00;100266.28;4955581;28;20049;-61
2021/12/22 05:04:24;;;;;;;55.78;16.80;;;;;;;-9.62;100.00;100256.53;4952580;28;20046;-63
2021/12/22 05:06:52;;;;;;;35.78;14.35;;;;;;;-9.47;100.00;100265.19;4946572;28;20043;-62
2021/12/22 05:09:18;;;;;;;30.85;14.98;;;;;;;-9.40;100.00;100264.75;4952811;28;20050;-63
2021/12/22 05:11:43;;;;;;;33.92;16.60;;;;;;;-9.36;100.00;100274.03;4954100;28;20047;-61
2021/12/22 05:14:09;;;;;;;37.00;14.75;;;;;;;-9.36;100.00;100271.44;4954967;28;20057;-62
2021/12/22 05:16:44;;;;;;;36.72;14.52;;;;;;;-9.41;100.00;100281.25;4958859;28;20046;-62
2021/12/22 05:19:14;;;;;;;32.83;13.80;;;;;;;-9.51;100.00;100282.69;4953832;28;20486;-63
2021/12/22 05:21:40;;;;;;;;;;;;;;;-9.49;100.00;100296.44;4955963;28;20290;-62
2021/12/22 05:24:05;;;;;;;33.83;13.38;;;;;;;-9.29;100.00;100300.47;4952223;28;20021;-62
2021/12/22 05:26:31;;;;;;;36.35;14.30;;;;;;;-9.61;100.00;100289.34;4952994;28;20120;-62
2021/12/22 05:28:56;;;;;;;34.80;14.40;;;;;;;-9.63;100.00;100291.22;4955816;28;20031;-62
2021/12/22 05:31:22;;;;;;;29.27;14.70;;;;;;;-9.52;100.00;100299.19;4951157;28;20043;-62
2021/12/22 05:33:48;;;;;;;37.63;14.25;;;;;;;-9.00;100.00;100298.75;4946366;28;20035;-62
2021/12/22 05:36:13;;;;;;;39.33;15.32;;;;;;;-8.92;100.00;100299.13;4954958;28;20052;-62
2021/12/22 05:38:39;;;;;;;35.72;14.98;;;;;;;-8.73;100.00;100298.03;4953753;28;20031;-62
2021/12/22 05:41:04;;;;;;;30.00;14.05;;;;;;;-8.75;100.00;100294.69;4953946;28;20050;-63
2021/12/22 05:43:30;;;;;;;37.75;15.80;;;;;;;-8.98;100.00;100298.69;4955787;28;20505;-62
2021/12/22 05:45:58;;;;;;;43.28;17.35;;;;;;;-9.24;100.00;100300.19;4944974;28;20050;-62
2021/12/22 05:48:23;;;;;;;29.30;14.68;;;;;;;-9.22;100.00;100293.16;4945272;28;20058;-62
2021/12/22 05:50:54;;;;;;;45.33;15.82;;;;;;;-9.23;100.00;100289.72;4948024;28;20051;-63
2021/12/22 05:53:19;;;;;;;37.53;15.32;;;;;;;-9.43;100.00;100283.09;4947494;28;20043;-62
2021/12/22 05:55:44;;;;;;;34.65;15.32;;;;;;;-9.29;100.00;100284.06;4945393;28;20050;-62
2021/12/22 05:58:10;;;;;;;40.63;14.63;;;;;;;-9.12;100.00;100286.50;4955933;28;20980;-62
2021/12/22 06:00:35;;;;;;;40.20;15.07;;;;;;;-9.00;100.00;100275.38;4950412;28;20058;-62
2021/12/22 06:03:01;;;;;;;32.78;15.95;;;;;;;-9.34;100.00;100272.16;4958648;28;20504;-62
2021/12/22 06:05:26;;;;;;;35.60;14.57;;;;;;;-9.58;100.00;100273.63;4949679;28;20047;-62
2021/12/22 06:07:52;;;;;;;35.08;15.48;;;;;;;-9.78;100.00;100275.59;4956799;28;20027;-62
2021/12/22 06:10:17;;;;;;;40.60;16.23;;;;;;;-9.90;100.00;100271.09;4955089;28;20041;-62
2021/12/22 06:12:43;;;;;;;37.42;15.40;;;;;;;-10.01;100.00;100274.28;4954383;28;20041;-62
2021/12/22 06:15:08;;;;;;;35.60;14.88;;;;;;;-10.11;100.00;100275.69;4943690;28;20617;-62
2021/12/22 06:17:34;;;;;;;34.85;15.63;;;;;;;-10.17;100.00;100275.22;4951116;28;20482;-63
2021/12/22 06:20:02;;;;;;;29.88;12.68;;;;;;;-10.15;100.00;100286.34;4956941;28;20046;-62
2021/12/22 06:22:30;;;;;;;30.52;13.88;;;;;;;-10.07;100.00;100291.94;4931680;28;20094;-62
2021/12/22 06:24:55;;;;;;;31.02;12.60;;;;;;;-10.06;100.00;100280.63;4943347;28;20046;-62
2021/12/22 06:27:21;;;;;;;28.27;14.18;;;;;;;-10.22;100.00;100288.44;4953970;28;20031;-62
2021/12/22 06:29:46;;;;;;;32.30;15.52;;;;;;;-10.22;100.00;100278.91;4947477;28;20279;-62
2021/12/22 06:32:12;;;;;;;25.85;12.52;;;;;;;-10.23;100.00;100290.19;4948024;28;20043;-62
2021/12/22 06:34:37;;;;;;;28.55;12.95;;;;;;;-10.23;100.00;100285.00;4953875;28;20038;-62
2021/12/22 06:37:03;;;;;;;44.60;14.68;;;;;;;-10.29;100.00;100282.78;4956355;28;20047;-62
2021/12/22 06:39:28;;;;;;;21.85;11.60;;;;;;;-10.17;100.00;100290.78;4943039;28;20490;-62
2021/12/22 06:41:54;;;;;;;33.85;14.18;;;;;;;-10.03;100.00;100294.28;4966658;28;20042;-63
2021/12/22 06:44:19;;;;;;;37.92;15.98;;;;;;;-10.06;100.00;100288.41;4953662;28;20117;-62
2021/12/22 06:46:45;;;;;;;31.63;13.93;;;;;;;-9.98;100.00;100291.44;4955064;28;20517;-62
2021/12/22 06:49:10;;;;;;;26.10;11.40;;;;;;;-10.08;100.00;100293.72;4947310;28;20705;-62
2021/12/22 06:51:36;;;;;;;25.40;12.40;;;;;;;-9.94;100.00;100292.91;4957992;28;20561;-62
2021/12/22 06:54:02;;;;;;;30.08;12.18;;;;;;;-10.05;100.00;100296.13;4950155;28;20386;-62
2021/12/22 06:56:27;;;;;;;34.42;13.63;;;;;;;-10.08;100.00;100300.63;4952590;28;20039;-62
2021/12/22 06:58:53;;;;;;;27.08;12.25;;;;;;;-9.67;100.00;100300.09;4956508;28;20034;-62
2021/12/22 07:01:20;;;;;;;27.05;13.57;;;;;;;-9.92;100.00;100298.88;4949068;28;20075;-62
2021/12/22 07:03:46;;;;;;;39.17;14.77;;;;;;;-9.98;100.00;100297.47;4952951;28;20046;-62
2021/12/22 07:06:11;;;;;;;26.17;12.35;;;;;;;-9.89;100.00;100301.28;4952425;28;20118;-63
2021/12/22 07:08:37;;;;;;;36.38;13.25;;;;;;;-9.36;100.00;100284.44;4952652;28;20741;-63
2021/12/22 07:11:02;;;;;;;22.88;10.52;;;;;;;-9.65;100.00;100280.06;4948367;28;20409;-62
2021/12/22 07:13:28;;;;;;;27.60;12.05;;;;;;;-9.65;100.00;100282.69;4961256;28;20038;-62
2021/12/22 07:15:53;;;;;;;20.80;11.23;;;;;;;-9.62;100.00;100283.31;4953194;28;20043;-62
2021/12/22 07:18:19;;;;;;;31.35;12.55;;;;;;;-9.52;100.00;100277.63;4951240;28;20047;-63
2021/12/22 07:20:44;;;;;;;24.00;11.70;;;;;;;-9.50;100.00;100280.97;4951225;28;20078;-64
2021/12/22 07:23:09;;;;;;;29.60;10.23;;;;;;;-9.31;100.00;100286.72;4958241;28;20034;-62
2021/12/22 07:25:35;;;;;;;22.23;12.07;;;;;;;-9.49;100.00;100290.41;4955525;28;20051;-63
2021/12/22 07:28:00;;;;;;;26.63;12.75;;;;;;;-9.60;100.00;100286.66;4954647;28;20026;-62
2021/12/22 07:30:26;;;;;;;22.98;11.52;;;;;;;-9.72;100.00;100292.56;4955325;28;20510;-63
2021/12/22 07:32:51;;;;;;;25.88;12.23;;;;;;;-9.72;99.83;100291.72;4948580;28;20701;-63
2021/12/22 07:35:35;;;;;;;37.88;12.70;;;;;;;-9.80;99.13;100287.81;4949729;28;20023;-64
2021/12/22 07:38:22;;;;;;;25.15;11.40;;;;;;;-9.76;99.05;100283.25;4950935;28;20122;-63
2021/12/22 07:40:47;;;;;;;25.65;11.93;;;;;;;-9.71;99.15;100283.00;4948311;28;20786;-63
2021/12/22 07:43:13;;;;;;;28.75;14.38;;;;;;;-9.78;99.05;100285.97;4946723;28;20031;-63
2021/12/22 07:45:38;;;;;;;26.70;11.23;;;;;;;-9.77;98.35;100281.59;4948272;28;20429;-63
2021/12/22 07:48:04;;;;;;;23.40;13.10;;;;;;;-9.47;100.00;100285.97;4949918;28;20034;-62
2021/12/22 07:50:29;;;;;;;29.70;13.77;;;;;;;-9.20;100.00;100293.91;4946635;28;20063;-64
2021/12/22 07:52:55;;;;;;;33.92;13.60;;;;;;;-9.34;99.63;100290.34;4951767;28;20035;-62
2021/12/22 07:55:20;;;;;;;27.67;14.18;;;;;;;-9.26;98.91;100294.25;4955364;28;20066;-62
2021/12/22 07:57:46;;;;;;;38.05;16.95;;;;;;;-8.93;100.00;100297.47;4954664;28;20754;-62
2021/12/22 08:00:12;;;;;;;40.78;16.55;;;;;;;-8.94;100.00;100303.56;4951220;28;20292;-62
2021/12/22 08:02:37;;;;;;;57.97;24.83;;;;;;;-8.92;100.00;100291.34;4955184;28;20954;-62
2021/12/22 08:05:04;;;;;;;50.85;24.13;;;;;;;-8.19;100.00;100295.50;4951286;28;20031;-62
2021/12/22 08:07:29;;;;;;;58.97;27.40;;;;;;;-8.20;100.00;100290.41;4966915;28;20130;-62
2021/12/22 08:09:54;;;;;;;72.75;30.73;;;;;;;-8.33;100.00;100285.16;4950531;28;20410;-62
2021/12/22 08:12:20;;;;;;;54.08;23.58;;;;;;;-8.61;97.79;100291.22;4951018;28;20311;-62
2021/12/22 08:14:45;;;;;;;42.35;20.40;;;;;;;-8.56;96.59;100284.84;4954744;28;20473;-61
2021/12/22 08:17:11;;;;;;;41.00;22.83;;;;;;;-8.67;93.81;100282.06;4954175;28;20039;-62
2021/12/22 08:19:36;;;;;;;37.00;19.83;;;;;;;-8.62;94.35;100290.41;4956460;28;20105;-62
2021/12/22 08:22:02;;;;;;;40.70;16.73;;;;;;;-8.74;92.29;100293.75;4955797;28;20553;-62
2021/12/22 08:24:28;;;;;;;36.72;19.48;;;;;;;-8.68;92.59;100293.38;4952380;28;20027;-62
2021/12/22 08:26:53;;;;;;;32.00;15.25;;;;;;;-8.61;92.67;100291.22;4952047;28;20036;-61
2021/12/22 08:29:19;;;;;;;26.95;14.52;;;;;;;-8.48;93.21;100295.59;4948991;28;20018;-63
2021/12/22 08:31:44;;;;;;;36.47;12.05;;;;;;;-8.58;93.15;100286.69;4956559;28;20055;-61
2021/12/22 08:34:11;;;;;;;23.83;11.95;;;;;;;-8.34;93.20;100293.88;4958105;28;20386;-61
2021/12/22 08:39:21;;;;;;;28.85;10.98;;;;;;;-8.13;92.74;100297.72;4939136;28;20038;-61
2021/12/22 08:41:49;;;;;;;27.73;12.20;;;;;;;-8.07;91.68;100297.34;4946778;28;20228;-61
2021/12/22 08:44:18;;;;;;;22.38;11.25;;;;;;;-7.95;91.90;100289.69;4953747;28;20494;-62
2021/12/22 08:46:48;;;;;;;28.60;12.40;;;;;;;-8.18;92.15;100288.56;4942416;28;20043;-61
2021/12/22 08:49:13;;;;;;;25.23;12.45;;;;;;;-8.12;92.38;100288.97;4949714;28;20029;-62
2021/12/22 08:51:39;;;;;;;23.08;12.20;;;;;;;-7.85;92.86;100288.16;4958813;28;20034;-62
2021/12/22 08:54:04;;;;;;;24.33;11.45;;;;;;;-7.60;91.93;100285.63;4948572;28;20027;-63
2021/12/22 08:56:30;;;;;;;25.38;12.73;;;;;;;-7.54;90.77;100280.97;4946105;28;20047;-62
2021/12/22 08:58:55;;;;;;;27.08;13.05;;;;;;;-6.98;90.90;100271.97;4953005;28;20043;-62
2021/12/22 09:01:22;;;;;;;30.30;13.75;;;;;;;-6.59;87.29;100272.75;4955589;28;20522;-61
2021/12/22 09:03:47;;;;;;;30.77;13.85;;;;;;;-5.85;84.69;100263.06;4951111;28;20069;-61
2021/12/22 09:06:13;;;;;;;28.30;13.93;;;;;;;-5.37;82.21;100261.34;4953165;28;20145;-61
2021/12/22 09:08:42;;;;;;;24.20;12.35;;;;;;;-5.44;80.26;100261.81;4955872;28;20031;-60
2021/12/22 09:11:07;;;;;;;30.13;12.38;;;;;;;-5.56;82.31;100270.56;4944556;28;20042;-60
2021/12/22 09:13:35;;;;;;;31.58;14.13;;;;;;;-5.05;82.48;100278.03;4955590;28;20037;-61
2021/12/22 09:16:01;;;;;;;28.30;14.40;;;;;;;-4.74;79.96;100275.72;4950886;28;20045;-60
2021/12/22 09:18:26;;;;;;;26.30;12.90;;;;;;;-5.00;78.06;100275.91;4950236;28;20047;-60
2021/12/22 09:20:52;;;;;;;26.50;13.20;;;;;;;-4.91;84.63;100263.09;4954487;28;20050;-60
2021/12/22 09:23:17;;;;;;;29.83;15.85;;;;;;;-4.16;78.91;100263.28;4943082;28;20038;-60
2021/12/22 09:25:42;;;;;;;32.53;15.50;;;;;;;-3.72;76.99;100260.63;4951052;28;20042;-61
2021/12/22 09:28:09;;;;;;;31.80;14.95;;;;;;;-3.84;78.64;100259.00;4950738;28;20526;-60
2021/12/22 09:30:36;;;;;;;24.23;13.23;;;;;;;-2.99;80.95;100263.38;4953367;28;20059;-63
2021/12/22 09:33:05;;;;;;;31.27;14.23;;;;;;;-2.79;74.28;100267.75;4954629;28;20034;-62
2021/12/22 09:35:30;;;;;;;27.98;15.27;;;;;;;-2.71;71.86;100274.97;4951389;28;20433;-60
2021/12/22 09:37:56;;;;;;;27.75;14.93;;;;;;;-2.47;71.61;100270.25;4953458;28;20035;-61
2021/12/22 09:40:21;;;;;;;33.60;16.55;;;;;;;-2.70;71.87;100274.00;4948037;28;20047;-62
2021/12/22 09:42:47;;;;;;;30.70;15.88;;;;;;;-2.93;72.52;100270.72;4952727;28;20035;-62
2021/12/22 09:45:12;;;;;;;33.28;17.83;;;;;;;-2.04;69.44;100268.28;4950573;28;20066;-61
2021/12/22 09:47:58;;;;;;;33.22;17.50;;;;;;;-2.19;71.80;100259.94;4955237;28;20122;-62
2021/12/22 09:50:38;;;;;;;32.53;16.83;;;;;;;-2.49;72.63;100266.09;4954582;28;20501;-62
2021/12/22 09:53:03;;;;;;;43.42;21.23;;;;;;;-3.48;75.68;100265.66;4945686;28;20059;-61
2021/12/22 09:55:32;;;;;;;36.75;19.98;;;;;;;-2.83;75.50;100264.53;4950341;28;20046;-61
2021/12/22 09:57:57;;;;;;;36.90;20.08;;;;;;;-2.97;74.70;100264.91;4954991;28;20448;-61
2021/12/22 10:00:22;;;;;;;34.33;18.13;;;;;;;-2.73;74.95;100264.59;4951046;28;20561;-61
2021/12/22 10:02:48;;;;;;;33.80;18.50;;;;;;;-3.11;76.29;100257.38;4948421;28;20619;-61
2021/12/22 10:05:13;;;;;;;40.65;19.40;;;;;;;-3.08;77.29;100254.47;4946737;28;20054;-61
2021/12/22 10:07:41;;;;;;;38.10;19.52;;;;;;;-2.89;76.65;100251.97;4954528;28;20027;-61
2021/12/22 10:10:08;;;;;;;43.53;19.77;;;;;;;-2.61;76.96;100254.84;4947428;28;20035;-62
2021/12/22 10:12:35;;;;;;;40.65;19.67;;;;;;;-1.87;73.48;100249.22;4948415;28;20050;-62
2021/12/22 10:15:03;;;;;;;41.67;19.63;;;;;;;-1.49;73.11;100247.56;4950271;28;20039;-63
2021/12/22 10:17:39;;;;;;;45.25;21.23;;;;;;;-1.36;73.61;100242.81;4950299;28;20166;-62
2021/12/22 10:20:16;;;;;;;41.85;17.80;;;;;;;-1.28;72.20;100234.22;4954314;28;20031;-61
2021/12/22 10:22:46;;;;;;;37.05;15.27;;;;;;;-1.38;72.03;100233.41;4947222;28;20024;-63
2021/12/22 10:25:22;;;;;;;24.48;13.88;;;;;;;-1.63;73.36;100219.88;4949718;28;20176;-62
2021/12/22 10:28:07;;;;;;;25.85;14.45;;;;;;;-1.30;72.97;100225.63;4957114;28;20035;-62
2021/12/22 10:30:57;;;;;;;31.25;14.52;;;;;;;-1.49;73.05;100217.81;4954116;28;20050;-62
2021/12/22 10:33:25;;;;;;;28.30;13.98;;;;;;;-1.28;73.30;100222.88;4947845;28;20105;-62
2021/12/22 10:35:55;;;;;;;23.00;12.73;;;;;;;-1.54;73.98;100221.66;4954420;28;20592;-62
2021/12/22 10:38:23;;;;;;;32.35;14.20;;;;;;;-1.15;73.33;100208.47;4954047;28;20035;-62
2021/12/22 10:40:53;;;;;;;36.47;15.52;;;;;;;-0.76;73.00;100216.19;4960749;28;20042;-63
2021/12/22 10:43:23;;;;;;;25.65;13.88;;;;;;;-0.19;70.92;100209.97;4958235;28;20031;-62
2021/12/22 10:45:51;;;;;;;31.67;13.77;;;;;;;-0.64;70.26;100210.75;4950833;28;20042;-62
2021/12/22 10:51:31;;;;;;;32.33;14.85;;;;;;;-1.98;77.20;100189.72;4955220;28;20046;-61
2021/12/22 10:53:57;;;;;;;27.88;13.00;;;;;;;-1.87;77.49;100196.66;4949645;28;20173;-63
2021/12/22 10:56:23;;;;;;;22.50;13.52;;;;;;;-1.80;77.54;100196.91;4950358;28;20445;-62
2021/12/22 10:58:59;;;;;;;32.08;13.55;;;;;;;-1.72;78.55;100194.44;4954157;28;20070;-62
2021/12/22 11:01:24;;;;;;;31.00;15.00;;;;;;;-1.68;77.85;100198.44;4955754;28;20039;-62
2021/12/22 11:03:54;;;;;;;32.25;17.33;;;;;;;-1.80;78.54;100191.66;4956061;28;20836;-62
2021/12/22 11:06:26;;;;;;;25.52;14.18;;;;;;;-1.64;78.84;100197.19;4951387;28;20043;-62
2021/12/22 11:09:10;;;;;;;27.73;14.38;;;;;;;-1.15;77.01;100197.09;4956536;28;20054;-62
2021/12/22 11:11:40;;;;;;;28.67;14.48;;;;;;;-1.33;76.24;100186.47;4953978;28;20067;-62
2021/12/22 11:14:07;;;;;;;27.38;14.23;;;;;;;-1.11;75.82;100188.75;4957079;28;20050;-62
2021/12/22 11:16:49;;;;;;;30.02;13.80;;;;;;;-1.91;78.98;100189.19;4944819;28;20054;-62
2021/12/22 11:19:15;;;;;;;26.75;14.30;;;;;;;-1.94;80.50;100184.22;4954410;28;20460;-62
2021/12/22 11:22:03;;;;;;;29.10;13.40;;;;;;;-1.58;79.58;100186.09;4950860;28;20041;-61